Pagrindinis puslapis
METAR-TAF:

METAR-TAF

Oro uostai :

Kartachena, Kolumbija

platuma: 10-27N, ilguma: 075-31W, Aukštis: 1 m

Dabartinis oras

Ataskaita buvo paskelbta 29 minutes, ne 13:00 UTC
Vėjas 4 kt iš Šiaurės Rytų, svyruoja nuo Šiaurės ir Rytų
Temperatūra 27°C
Drėgmė 84%
Slėgis 1014 hPa
Matomumas 10 km arba daugiau
nėra debesų žemiau 1500 m ir nėra kamuolinių lietaus debesų

METAR: SKCG 281300Z 05004KT 010V090 CAVOK 27/24 A2993

Laikas: 08:29 (13:29 UTC)

Prognozė

Ataskaita buvo paskelbta 2 valandos ir 59 minutes, ne 10:30 UTC
Prognozė galioja nuo 28 metu 12 UTC su 29 metu 12 UTC
Vėjas 4 kt nuo kintamojo kryptimis
Matomumas 10 km arba daugiau
Mažai debesys ne aukštis 1700 ft
Išsisklaidę debesys ne aukštis 10000 ft
Tapsmas
nuo 28 metu 15 UTC su 28 metu 17 UTC
Vėjas 13 kt iš Šiaurės

TAF: SKCG 281030Z 2812/2912 VRB04KT 9999 FEW017 SCT100 BECMG 2815/2817 36013KT TX32/2818Z TN24/2911Z

Orai ataskaitas ir orų prognozės (METAR, TAF).

turimą stotys yra geltonos ir raudonos taškus žemėlapyje.

Perkelti pele per norėdami pamatyti stoties vardą.

Tada spustelėkite, norėdami matyti oro stebėjimo ir prognozės.

Norėdami pakeisti žemėlapį: spustelėkite ant žalios mygtukų su juodo kryžiaus žemyn,; žalią mygtuką su brūkšneliu, jei norite nutolinti; arba žalių rodyklių gretimoms žemėlapius.


METAR-TAF: